createdAt,value
2019-03-11T00:00:11.764Z,0
2019-03-11T00:00:52.318Z,0
2019-03-11T00:01:32.880Z,0
2019-03-11T00:02:13.469Z,0
2019-03-11T00:02:54.028Z,0
2019-03-11T00:03:34.614Z,0
2019-03-11T00:04:16.066Z,0
2019-03-11T00:04:55.888Z,0
2019-03-11T00:05:36.451Z,0
2019-03-11T00:06:17.038Z,0
2019-03-11T00:06:57.698Z,0
2019-03-11T00:07:38.426Z,0
2019-03-11T00:08:19.022Z,0
2019-03-11T00:08:59.648Z,0
2019-03-11T00:09:40.223Z,0
2019-03-11T00:10:20.802Z,0
2019-03-11T00:11:01.407Z,0
2019-03-11T00:11:42.014Z,0
2019-03-11T00:12:22.592Z,0
2019-03-11T00:13:03.164Z,0
2019-03-11T00:13:43.701Z,0
2019-03-11T00:14:24.254Z,0
2019-03-11T00:15:04.848Z,0
2019-03-11T00:15:45.502Z,0
2019-03-11T00:16:26.359Z,0
2019-03-11T00:17:07.032Z,0
2019-03-11T00:17:47.731Z,0
2019-03-11T00:18:28.356Z,0
2019-03-11T00:19:08.924Z,0
2019-03-11T00:19:49.492Z,0
2019-03-11T00:20:30.060Z,0
2019-03-11T00:21:10.638Z,0
2019-03-11T00:21:51.203Z,0
2019-03-11T00:22:31.762Z,0
2019-03-11T00:23:12.346Z,0
2019-03-11T00:23:52.931Z,0
2019-03-11T00:24:33.512Z,0
2019-03-11T00:25:14.065Z,0
2019-03-11T00:25:54.629Z,0
2019-03-11T00:26:35.191Z,0
2019-03-11T00:27:15.746Z,0
2019-03-11T00:27:56.295Z,0
2019-03-11T00:28:36.873Z,0
2019-03-11T00:29:17.445Z,0
2019-03-11T00:29:58.073Z,0
2019-03-11T00:30:38.624Z,0
2019-03-11T00:31:19.197Z,0
2019-03-11T00:31:59.775Z,0
2019-03-11T00:32:40.355Z,0
2019-03-11T00:33:21.005Z,0
2019-03-11T00:34:01.579Z,0
2019-03-11T00:34:42.138Z,0
2019-03-11T00:35:22.704Z,0
2019-03-11T00:36:03.291Z,0
2019-03-11T00:36:43.849Z,0
2019-03-11T00:37:24.549Z,0
2019-03-11T00:38:05.151Z,0
2019-03-11T00:38:45.687Z,0
2019-03-11T00:39:26.291Z,0
2019-03-11T00:40:06.868Z,0
2019-03-11T00:40:47.464Z,0
2019-03-11T00:41:28.055Z,0
2019-03-11T00:42:08.604Z,0
2019-03-11T00:42:49.180Z,0
2019-03-11T00:43:29.772Z,0
2019-03-11T00:44:10.325Z,0
2019-03-11T00:44:50.877Z,0
2019-03-11T00:45:31.478Z,0
2019-03-11T00:46:12.062Z,0
2019-03-11T00:46:52.609Z,0
2019-03-11T00:47:33.165Z,0
2019-03-11T00:48:13.727Z,0
2019-03-11T00:48:54.298Z,0
2019-03-11T00:49:34.863Z,0
2019-03-11T00:50:15.409Z,0
2019-03-11T00:50:55.971Z,0
2019-03-11T00:51:36.558Z,0
2019-03-11T00:52:17.121Z,0
2019-03-11T00:52:57.687Z,0
2019-03-11T00:53:38.242Z,0
2019-03-11T00:54:18.808Z,0
2019-03-11T00:54:59.393Z,0
2019-03-11T00:55:39.978Z,0
2019-03-11T00:56:20.549Z,0
2019-03-11T00:57:01.102Z,0
2019-03-11T00:57:41.674Z,0
2019-03-11T00:58:22.261Z,0
2019-03-11T00:59:02.834Z,0
2019-03-11T00:59:43.390Z,0
2019-03-11T01:00:23.961Z,0
2019-03-11T01:01:04.526Z,0
2019-03-11T01:01:45.108Z,0
2019-03-11T01:02:25.710Z,0
2019-03-11T01:03:06.270Z,0
2019-03-11T01:03:46.860Z,0
2019-03-11T01:04:27.384Z,0
2019-03-11T01:05:07.957Z,0
2019-03-11T01:05:48.523Z,0
2019-03-11T01:06:29.099Z,0
2019-03-11T01:07:09.675Z,0
2019-03-11T01:07:50.240Z,0
2019-03-11T01:08:30.795Z,0
2019-03-11T01:09:11.361Z,0
2019-03-11T01:09:51.926Z,0
2019-03-11T01:10:32.487Z,0
2019-03-11T01:11:13.047Z,0
2019-03-11T01:11:53.605Z,0
2019-03-11T01:12:34.152Z,0
2019-03-11T01:13:14.716Z,0
2019-03-11T01:13:55.303Z,0
2019-03-11T01:14:36.126Z,0
2019-03-11T01:15:16.463Z,0
2019-03-11T01:15:57.073Z,0
2019-03-11T01:16:37.654Z,0
2019-03-11T01:17:18.200Z,0
2019-03-11T01:17:58.756Z,0
2019-03-11T01:18:39.310Z,0
2019-03-11T01:19:19.865Z,0
2019-03-11T01:20:00.437Z,0
2019-03-11T01:20:41.011Z,0
2019-03-11T01:21:21.569Z,0
2019-03-11T01:22:02.117Z,0
2019-03-11T01:22:42.649Z,0
2019-03-11T01:23:23.210Z,0
2019-03-11T01:24:03.780Z,0
2019-03-11T01:24:44.345Z,0
2019-03-11T01:25:24.907Z,0
2019-03-11T01:26:05.470Z,0
2019-03-11T01:26:46.023Z,0
2019-03-11T01:27:26.580Z,0
2019-03-11T01:28:07.149Z,0
2019-03-11T01:28:47.705Z,0
2019-03-11T01:29:28.276Z,0
2019-03-11T01:30:08.882Z,0
2019-03-11T01:30:49.431Z,0
2019-03-11T01:31:29.992Z,0
2019-03-11T01:32:10.538Z,0
2019-03-11T01:32:51.102Z,0
2019-03-11T01:33:31.673Z,0
2019-03-11T01:34:12.231Z,0
2019-03-11T01:34:52.799Z,0
2019-03-11T01:35:33.398Z,0
2019-03-11T01:36:13.955Z,0
2019-03-11T01:36:54.546Z,0
2019-03-11T01:37:35.121Z,0
2019-03-11T01:38:15.698Z,0
2019-03-11T01:38:56.312Z,0
2019-03-11T01:39:36.803Z,0
2019-03-11T01:40:17.382Z,0
2019-03-11T01:40:57.917Z,0
2019-03-11T01:41:38.477Z,0
2019-03-11T01:42:19.019Z,0
2019-03-11T01:42:59.610Z,0
2019-03-11T01:43:40.171Z,0
2019-03-11T01:44:20.747Z,0
2019-03-11T01:45:01.312Z,0
2019-03-11T01:45:41.904Z,0
2019-03-11T01:46:22.465Z,0
2019-03-11T01:47:03.030Z,0
2019-03-11T01:47:43.595Z,0
2019-03-11T01:48:24.161Z,0
2019-03-11T01:49:04.707Z,0
2019-03-11T01:49:45.282Z,0
2019-03-11T01:50:25.851Z,0
2019-03-11T01:51:06.417Z,0
2019-03-11T01:51:46.989Z,0
2019-03-11T01:52:27.554Z,0
2019-03-11T01:53:08.132Z,0
2019-03-11T01:53:48.704Z,0
2019-03-11T01:54:29.261Z,0
2019-03-11T01:55:09.809Z,0
2019-03-11T01:55:50.382Z,0
2019-03-11T01:56:30.948Z,0
2019-03-11T01:57:11.534Z,0
2019-03-11T01:57:52.125Z,0
2019-03-11T01:58:32.708Z,0
2019-03-11T01:59:13.256Z,0
2019-03-11T01:59:53.809Z,0
2019-03-11T02:00:34.392Z,0
2019-03-11T02:01:14.943Z,0
2019-03-11T02:01:55.516Z,0
2019-03-11T02:02:36.083Z,0
2019-03-11T02:03:16.644Z,0
2019-03-11T02:03:57.215Z,0
2019-03-11T02:04:37.810Z,0
2019-03-11T02:05:18.374Z,0
2019-03-11T02:05:58.946Z,0
2019-03-11T02:06:39.518Z,0
2019-03-11T02:07:20.111Z,0
2019-03-11T02:08:00.656Z,0
2019-03-11T02:08:41.242Z,0
2019-03-11T02:09:22.132Z,0
2019-03-11T02:10:02.681Z,0
2019-03-11T02:10:43.254Z,0
2019-03-11T02:11:23.808Z,0
2019-03-11T02:12:04.384Z,0
2019-03-11T02:12:44.921Z,0
2019-03-11T02:13:25.472Z,0
2019-03-11T02:14:06.047Z,0
2019-03-11T02:14:46.596Z,0
2019-03-11T02:15:27.145Z,0
2019-03-11T02:16:07.696Z,0
2019-03-11T02:16:48.269Z,0
2019-03-11T02:17:28.829Z,0
2019-03-11T02:18:09.402Z,0
2019-03-11T02:18:50.013Z,0
2019-03-11T02:19:30.590Z,0
2019-03-11T02:20:11.192Z,0
2019-03-11T02:20:51.757Z,0
2019-03-11T02:21:32.352Z,0
2019-03-11T02:22:12.905Z,0
2019-03-11T02:22:53.473Z,0
2019-03-11T02:23:34.060Z,0
2019-03-11T02:24:14.652Z,0
2019-03-11T02:24:55.216Z,0
2019-03-11T02:25:35.762Z,0
2019-03-11T02:26:16.329Z,0
2019-03-11T02:26:56.894Z,0
2019-03-11T02:27:37.438Z,0
2019-03-11T02:28:17.997Z,0
2019-03-11T02:28:58.565Z,0
2019-03-11T02:29:39.117Z,0
2019-03-11T02:30:19.686Z,0
2019-03-11T02:31:00.221Z,0
2019-03-11T02:31:40.794Z,0
2019-03-11T02:32:21.388Z,0
2019-03-11T02:33:01.947Z,0
2019-03-11T02:33:42.498Z,0
2019-03-11T02:34:23.098Z,0
2019-03-11T02:35:03.693Z,0
2019-03-11T02:35:44.232Z,0
2019-03-11T02:36:24.788Z,0
2019-03-11T02:37:05.352Z,0
2019-03-11T02:37:45.960Z,0
2019-03-11T02:38:26.514Z,0
2019-03-11T02:39:07.078Z,0
2019-03-11T02:39:47.633Z,0
2019-03-11T02:40:28.219Z,0
2019-03-11T02:41:08.775Z,0
2019-03-11T02:41:49.347Z,0
2019-03-11T02:42:29.888Z,0
2019-03-11T02:43:10.478Z,0
2019-03-11T02:43:51.058Z,0
2019-03-11T02:44:31.663Z,0
2019-03-11T02:45:12.219Z,0
2019-03-11T02:45:52.785Z,0
2019-03-11T02:46:33.351Z,0
2019-03-11T02:47:13.931Z,0
2019-03-11T02:47:54.520Z,0
2019-03-11T02:48:35.086Z,0
2019-03-11T02:49:15.684Z,0
2019-03-11T02:49:56.218Z,0
2019-03-11T02:50:36.773Z,0
2019-03-11T02:51:17.357Z,0
2019-03-11T02:51:57.920Z,0
2019-03-11T02:52:38.457Z,0
2019-03-11T02:53:19.031Z,0
2019-03-11T02:53:59.597Z,0
2019-03-11T02:54:40.146Z,0
2019-03-11T02:55:20.712Z,0
2019-03-11T02:56:01.267Z,0
2019-03-11T02:56:41.840Z,0
2019-03-11T02:57:22.417Z,0
2019-03-11T02:58:03.007Z,0
2019-03-11T02:58:43.549Z,0
2019-03-11T02:59:24.134Z,0
2019-03-11T03:00:04.693Z,0
2019-03-11T03:00:45.282Z,0
2019-03-11T03:01:25.894Z,0
2019-03-11T03:02:06.468Z,0
2019-03-11T03:02:47.023Z,0
2019-03-11T03:03:27.575Z,0
2019-03-11T03:04:08.146Z,0
2019-03-11T03:04:48.704Z,0
2019-03-11T03:05:29.265Z,0
2019-03-11T03:06:09.851Z,0
2019-03-11T03:06:50.401Z,0
2019-03-11T03:07:31.007Z,0
2019-03-11T03:08:11.587Z,0
2019-03-11T03:08:52.155Z,0
2019-03-11T03:09:33.263Z,0
2019-03-11T03:10:13.829Z,0
2019-03-11T03:10:54.379Z,0
2019-03-11T03:11:34.954Z,0
2019-03-11T03:12:15.521Z,0
2019-03-11T03:12:56.102Z,0
2019-03-11T03:13:36.658Z,0
2019-03-11T03:14:17.203Z,0
2019-03-11T03:14:57.764Z,0
2019-03-11T03:15:38.342Z,0
2019-03-11T03:16:18.914Z,0
2019-03-11T03:16:59.488Z,0
2019-03-11T03:17:40.045Z,0
2019-03-11T03:18:20.610Z,0
2019-03-11T03:19:01.168Z,0
2019-03-11T03:19:41.739Z,0
2019-03-11T03:20:22.322Z,0
2019-03-11T03:21:02.872Z,0
2019-03-11T03:21:43.441Z,0
2019-03-11T03:22:23.989Z,0
2019-03-11T03:23:04.576Z,0
2019-03-11T03:23:45.138Z,0
2019-03-11T03:24:25.693Z,0
2019-03-11T03:25:06.239Z,0
2019-03-11T03:25:46.800Z,0
2019-03-11T03:26:27.360Z,0
2019-03-11T03:27:07.912Z,0
2019-03-11T03:27:48.525Z,0
2019-03-11T03:28:29.031Z,0
2019-03-11T03:29:09.630Z,0
2019-03-11T03:29:50.178Z,0
2019-03-11T03:30:30.751Z,0
2019-03-11T03:31:11.326Z,0
2019-03-11T03:31:51.973Z,0
2019-03-11T03:32:32.478Z,0
2019-03-11T03:33:13.051Z,0
2019-03-11T03:33:53.654Z,0
2019-03-11T03:34:34.216Z,0
2019-03-11T03:35:14.804Z,0
2019-03-11T03:35:55.370Z,0
2019-03-11T03:36:35.955Z,0
2019-03-11T03:37:16.476Z,0
2019-03-11T03:37:57.042Z,0
2019-03-11T03:38:37.614Z,0
2019-03-11T03:39:18.208Z,0
2019-03-11T03:39:58.804Z,0
2019-03-11T03:40:39.366Z,0
2019-03-11T03:41:19.927Z,0
2019-03-11T03:42:00.494Z,0
2019-03-11T03:42:41.117Z,0
2019-03-11T03:43:21.867Z,0
2019-03-11T03:44:02.226Z,0
2019-03-11T03:44:42.785Z,0
2019-03-11T03:45:23.346Z,0
2019-03-11T03:46:17.245Z,0
2019-03-11T03:46:44.472Z,0
2019-03-11T03:47:25.017Z,0
2019-03-11T03:48:05.574Z,0
2019-03-11T03:48:46.343Z,0
2019-03-11T03:49:26.699Z,0
2019-03-11T03:50:07.278Z,0
2019-03-11T03:50:47.942Z,0
2019-03-11T03:51:28.637Z,0
2019-03-11T03:52:09.208Z,0
2019-03-11T03:52:49.754Z,0
2019-03-11T03:53:30.318Z,0
2019-03-11T03:54:10.926Z,0
2019-03-11T03:54:51.490Z,0
2019-03-11T03:55:32.051Z,0
2019-03-11T03:56:12.611Z,0
2019-03-11T03:56:54.188Z,0
2019-03-11T03:57:33.753Z,0
2019-03-11T03:58:14.327Z,0
2019-03-11T03:58:54.933Z,0
2019-03-11T03:59:35.531Z,0
2019-03-11T04:00:16.077Z,0
2019-03-11T04:00:56.665Z,0
2019-03-11T04:01:37.250Z,0
2019-03-11T04:02:17.812Z,0
2019-03-11T04:02:58.396Z,0
2019-03-11T04:03:38.951Z,0
2019-03-11T04:04:19.502Z,0
2019-03-11T04:05:00.075Z,0
2019-03-11T04:05:40.672Z,0
2019-03-11T04:06:21.260Z,0
2019-03-11T04:07:01.821Z,0
2019-03-11T04:07:42.389Z,0
2019-03-11T04:08:22.956Z,0
2019-03-11T04:09:03.509Z,0
2019-03-11T04:09:44.053Z,0
2019-03-11T04:10:24.625Z,0
2019-03-11T04:11:05.170Z,0
2019-03-11T04:11:45.718Z,0
2019-03-11T04:12:26.274Z,0
2019-03-11T04:13:06.844Z,0
2019-03-11T04:13:47.408Z,0
2019-03-11T04:14:28.048Z,0
2019-03-11T04:15:08.613Z,0
2019-03-11T04:15:49.193Z,0
2019-03-11T04:16:29.730Z,0
2019-03-11T04:17:10.288Z,0
2019-03-11T04:17:50.850Z,0
2019-03-11T04:18:31.418Z,0
2019-03-11T04:19:11.985Z,0
2019-03-11T04:19:52.561Z,0
2019-03-11T04:20:33.120Z,0
2019-03-11T04:21:13.673Z,0
2019-03-11T04:21:54.247Z,0
2019-03-11T04:22:34.800Z,0
2019-03-11T04:23:15.381Z,0
2019-03-11T04:23:55.954Z,0
2019-03-11T04:24:36.523Z,0
2019-03-11T04:25:17.091Z,0
2019-03-11T04:25:57.643Z,0
2019-03-11T04:26:38.208Z,0
2019-03-11T04:27:18.855Z,0
2019-03-11T04:27:59.439Z,0
2019-03-11T04:28:40.009Z,0
2019-03-11T04:29:20.587Z,0
2019-03-11T04:30:01.146Z,0
2019-03-11T04:30:41.713Z,0
2019-03-11T04:31:22.288Z,0
2019-03-11T04:32:03.227Z,0
2019-03-11T04:32:43.819Z,0
2019-03-11T04:33:24.360Z,0
2019-03-11T04:34:04.904Z,0
2019-03-11T04:34:45.478Z,0
2019-03-11T04:35:26.032Z,0
2019-03-11T04:36:06.616Z,0
2019-03-11T04:36:47.204Z,0
2019-03-11T04:37:27.759Z,0
2019-03-11T04:38:08.326Z,0
2019-03-11T04:38:48.879Z,0
2019-03-11T04:39:29.483Z,0
2019-03-11T04:40:10.076Z,0
2019-03-11T04:40:50.627Z,0
2019-03-11T04:41:31.202Z,0
2019-03-11T04:42:11.777Z,0
2019-03-11T04:42:52.341Z,0
2019-03-11T04:43:32.959Z,0
2019-03-11T04:44:13.530Z,0
2019-03-11T04:44:54.094Z,0
2019-03-11T04:45:34.662Z,0
2019-03-11T04:46:15.243Z,0
2019-03-11T04:46:55.829Z,0
2019-03-11T04:47:36.397Z,0
2019-03-11T04:48:16.963Z,0
2019-03-11T04:48:57.502Z,0
2019-03-11T04:49:38.059Z,0
2019-03-11T04:50:18.640Z,0
2019-03-11T04:50:59.229Z,0
2019-03-11T04:51:39.793Z,0
2019-03-11T04:52:20.344Z,0
2019-03-11T04:53:00.900Z,0
2019-03-11T04:53:41.469Z,0
2019-03-11T04:54:22.013Z,0
2019-03-11T04:55:02.576Z,0
2019-03-11T04:55:43.150Z,0
2019-03-11T04:56:23.728Z,0
2019-03-11T04:57:04.299Z,0
2019-03-11T04:57:44.856Z,0
2019-03-11T04:58:25.421Z,0
2019-03-11T04:59:05.981Z,0
2019-03-11T04:59:46.553Z,0
2019-03-11T05:00:27.121Z,0
2019-03-11T05:01:07.649Z,0
2019-03-11T05:01:48.298Z,0
2019-03-11T05:02:28.872Z,0
2019-03-11T05:03:09.466Z,0
2019-03-11T05:03:50.039Z,0
2019-03-11T05:04:30.629Z,0
2019-03-11T05:05:11.190Z,0
2019-03-11T05:05:51.764Z,0
2019-03-11T05:06:32.315Z,0
2019-03-11T05:07:12.877Z,0
2019-03-11T05:07:53.433Z,0
2019-03-11T05:08:33.989Z,0
2019-03-11T05:09:14.547Z,0
2019-03-11T05:09:55.785Z,4
2019-03-11T05:10:36.322Z,4
2019-03-11T05:11:16.905Z,4
2019-03-11T05:11:57.462Z,4
2019-03-11T05:12:38.009Z,0
2019-03-11T05:13:18.600Z,0
2019-03-11T05:13:59.215Z,0
2019-03-11T05:14:39.779Z,4
2019-03-11T05:15:20.352Z,4
2019-03-11T05:16:00.911Z,4
2019-03-11T05:16:41.447Z,4
2019-03-11T05:17:22.003Z,4
2019-03-11T05:18:02.552Z,4
2019-03-11T05:18:43.156Z,4
2019-03-11T05:19:23.728Z,4
2019-03-11T05:20:04.340Z,4
2019-03-11T05:20:44.906Z,4
2019-03-11T05:21:25.476Z,4
2019-03-11T05:22:06.026Z,8
2019-03-11T05:22:46.591Z,4
2019-03-11T05:23:27.144Z,4
2019-03-11T05:24:07.706Z,8
2019-03-11T05:24:48.295Z,8
2019-03-11T05:25:28.934Z,8
2019-03-11T05:26:09.431Z,12
2019-03-11T05:26:49.984Z,12
2019-03-11T05:27:30.536Z,12
2019-03-11T05:28:11.078Z,12
2019-03-11T05:28:51.649Z,12
2019-03-11T05:29:32.188Z,16
2019-03-11T05:30:12.742Z,16
2019-03-11T05:30:53.320Z,16
2019-03-11T05:31:33.871Z,16
2019-03-11T05:32:14.446Z,16
2019-03-11T05:32:55.057Z,20
2019-03-11T05:33:35.655Z,20
2019-03-11T05:34:18.349Z,24
2019-03-11T05:34:56.811Z,28
2019-03-11T05:35:37.350Z,32
2019-03-11T05:36:17.910Z,36
2019-03-11T05:36:58.464Z,36
2019-03-11T05:37:39.017Z,36
2019-03-11T05:38:19.580Z,40
2019-03-11T05:39:00.134Z,40
2019-03-11T05:39:40.681Z,44
2019-03-11T05:40:21.242Z,48
2019-03-11T05:41:01.795Z,48
2019-03-11T05:41:42.368Z,48
2019-03-11T05:42:22.981Z,56
2019-03-11T05:43:03.590Z,56
2019-03-11T05:43:44.141Z,60
2019-03-11T05:44:24.704Z,68
2019-03-11T05:45:05.284Z,76
2019-03-11T05:45:45.832Z,80
2019-03-11T05:46:26.393Z,84
2019-03-11T05:47:06.963Z,88
2019-03-11T05:47:47.528Z,92
2019-03-11T05:48:28.095Z,96
2019-03-11T05:49:08.653Z,104
2019-03-11T05:49:49.212Z,108
2019-03-11T05:50:29.777Z,116
2019-03-11T05:51:10.334Z,124
2019-03-11T05:51:51.710Z,132
2019-03-11T05:52:31.460Z,136
2019-03-11T05:53:12.024Z,144
2019-03-11T05:53:52.614Z,152
2019-03-11T05:54:33.230Z,152
2019-03-11T05:55:13.786Z,152
2019-03-11T05:55:54.405Z,156
2019-03-11T05:56:34.912Z,160
2019-03-11T05:57:15.471Z,164
2019-03-11T05:57:56.074Z,160
2019-03-11T05:58:36.608Z,160
2019-03-11T05:59:17.163Z,164
2019-03-11T05:59:57.738Z,168
2019-03-11T06:00:38.302Z,188
2019-03-11T06:01:18.879Z,220
2019-03-11T06:01:59.434Z,240
2019-03-11T06:02:39.994Z,260
2019-03-11T06:03:20.556Z,324
2019-03-11T06:04:01.108Z,348
2019-03-11T06:04:41.684Z,332
2019-03-11T06:05:22.262Z,360
2019-03-11T06:06:02.834Z,412
2019-03-11T06:06:43.413Z,456
2019-03-11T06:07:24.021Z,484
2019-03-11T06:08:04.591Z,520
2019-03-11T06:08:45.206Z,528
2019-03-11T06:09:26.255Z,520
2019-03-11T06:10:06.825Z,460
2019-03-11T06:10:47.393Z,448
2019-03-11T06:11:27.989Z,504
2019-03-11T06:12:08.560Z,584
2019-03-11T06:12:49.262Z,628
2019-03-11T06:13:35.734Z,676
2019-03-11T06:14:10.471Z,744
2019-03-11T06:14:51.023Z,816
2019-03-11T06:15:31.842Z,856
2019-03-11T06:16:12.437Z,880
2019-03-11T06:16:54.423Z,912
2019-03-11T06:17:35.096Z,928
2019-03-11T06:18:15.634Z,944
2019-03-11T06:18:56.201Z,952
2019-03-11T06:19:36.932Z,956
2019-03-11T06:20:17.467Z,956
2019-03-11T06:20:58.051Z,928
2019-03-11T06:21:38.740Z,904
2019-03-11T06:22:19.407Z,860
2019-03-11T06:23:00.281Z,820
2019-03-11T06:23:41.509Z,796
2019-03-11T06:24:22.475Z,800
2019-03-11T06:25:04.134Z,824
2019-03-11T06:25:45.516Z,848
2019-03-11T06:26:26.711Z,880
2019-03-11T06:27:08.960Z,940
2019-03-11T06:27:49.303Z,1032
2019-03-11T06:28:30.437Z,1112
2019-03-11T06:29:13.335Z,1172
2019-03-11T06:29:54.778Z,1224
2019-03-11T06:30:35.864Z,1272
2019-03-11T06:31:17.998Z,1308
2019-03-11T06:31:58.232Z,1372
2019-03-11T06:32:39.116Z,1448
2019-03-11T06:33:19.989Z,1536
2019-03-11T06:34:00.876Z,1608
2019-03-11T06:34:41.677Z,1680
2019-03-11T06:35:22.587Z,1756
2019-03-11T06:36:03.418Z,1864
2019-03-11T06:36:44.417Z,1972
2019-03-11T06:37:25.202Z,2104
2019-03-11T06:38:07.482Z,2256
2019-03-11T06:38:46.872Z,2408
2019-03-11T06:39:30.075Z,2524
2019-03-11T06:40:10.973Z,2660
2019-03-11T06:40:51.815Z,2788
2019-03-11T06:41:32.550Z,2816
2019-03-11T06:42:13.288Z,2840
2019-03-11T06:42:54.061Z,2916
2019-03-11T06:43:34.869Z,2944
2019-03-11T06:44:15.870Z,2972
2019-03-11T06:44:56.887Z,3060
2019-03-11T06:45:37.684Z,3240
2019-03-11T06:46:18.688Z,3428
2019-03-11T06:47:00.462Z,3468
2019-03-11T06:47:41.639Z,3572
2019-03-11T06:48:23.211Z,3728
2019-03-11T06:49:05.603Z,3820
2019-03-11T06:49:46.431Z,3892
2019-03-11T06:50:27.204Z,3836
2019-03-11T06:51:07.979Z,3712
2019-03-11T06:51:48.711Z,3544
2019-03-11T06:52:29.454Z,3472
2019-03-11T06:53:10.183Z,3328
2019-03-11T06:53:50.967Z,3184
2019-03-11T06:54:34.069Z,3044
2019-03-11T06:55:20.198Z,3004
2019-03-11T06:56:02.473Z,3080
2019-03-11T06:56:43.315Z,3068
2019-03-11T06:57:24.068Z,2952
2019-03-11T06:58:05.641Z,2928
2019-03-11T06:58:46.460Z,3056
2019-03-11T06:59:27.261Z,3352
2019-03-11T07:00:08.149Z,3684
2019-03-11T07:00:48.994Z,4104
2019-03-11T07:01:29.659Z,4492
2019-03-11T07:02:10.470Z,4864
2019-03-11T07:02:51.165Z,5036
2019-03-11T07:03:31.946Z,5224
2019-03-11T07:04:12.616Z,5328
2019-03-11T07:04:53.356Z,5044
2019-03-11T07:05:34.180Z,4856
2019-03-11T07:06:14.891Z,5028
2019-03-11T07:06:56.985Z,5224
2019-03-11T07:07:37.272Z,5132
2019-03-11T07:08:18.065Z,4992
2019-03-11T07:08:58.863Z,4912
2019-03-11T07:09:39.592Z,4924
2019-03-11T07:10:20.397Z,5040
2019-03-11T07:11:01.221Z,5172
2019-03-11T07:11:41.961Z,5340
2019-03-11T07:12:22.635Z,5532
2019-03-11T07:13:03.475Z,5784
2019-03-11T07:13:44.116Z,6064
2019-03-11T07:14:24.707Z,6336
2019-03-11T07:15:05.268Z,6496
2019-03-11T07:15:45.832Z,6412
2019-03-11T07:16:26.403Z,6408
2019-03-11T07:17:07.087Z,6580
2019-03-11T07:17:47.652Z,6880
2019-03-11T07:18:28.223Z,7148
2019-03-11T07:19:08.806Z,7392
2019-03-11T07:19:49.372Z,7792
2019-03-11T07:20:29.952Z,8288
2019-03-11T07:21:10.526Z,7184
2019-03-11T07:21:51.087Z,6420
2019-03-11T07:22:31.708Z,5904
2019-03-11T07:23:12.335Z,5236
2019-03-11T07:23:53.100Z,5460
2019-03-11T07:24:33.748Z,5028
2019-03-11T07:25:14.363Z,4768
2019-03-11T07:25:54.932Z,4868
2019-03-11T07:26:35.491Z,5876
2019-03-11T07:27:16.158Z,6660
2019-03-11T07:27:56.822Z,7712
2019-03-11T07:28:37.656Z,8004
2019-03-11T07:29:18.881Z,8680
2019-03-11T07:29:59.690Z,10256
2019-03-11T07:30:40.367Z,9860
2019-03-11T07:31:20.953Z,8696
2019-03-11T07:32:01.586Z,9944
2019-03-11T07:32:42.138Z,11224
2019-03-11T07:33:22.867Z,10976
2019-03-11T07:34:03.499Z,12248
2019-03-11T07:34:44.221Z,14600
2019-03-11T07:35:24.821Z,7264
2019-03-11T07:36:05.399Z,8532
2019-03-11T07:36:45.961Z,9516
2019-03-11T07:37:26.540Z,32800
2019-03-11T07:38:07.092Z,27104
2019-03-11T07:38:47.653Z,9612
2019-03-11T07:39:28.234Z,18560
2019-03-11T07:40:08.781Z,14664
2019-03-11T07:40:49.345Z,3784
2019-03-11T07:41:30.125Z,3700
2019-03-11T07:42:11.119Z,3572
2019-03-11T07:42:52.057Z,4124
2019-03-11T07:43:32.632Z,5900
2019-03-11T07:44:13.208Z,8824
2019-03-11T07:44:53.761Z,10148
2019-03-11T07:45:34.472Z,30880
2019-03-11T07:46:15.071Z,27360
2019-03-11T07:46:55.666Z,59808
2019-03-11T07:47:36.246Z,61728
2019-03-11T07:48:17.002Z,50240
2019-03-11T07:48:57.588Z,33504
2019-03-11T07:49:38.182Z,16008
2019-03-11T07:50:18.739Z,6528
2019-03-11T07:50:59.304Z,5024
2019-03-11T07:51:39.898Z,4072
2019-03-11T07:52:20.467Z,4360
2019-03-11T07:53:01.063Z,4200
2019-03-11T07:53:41.633Z,3012
2019-03-11T07:54:22.224Z,2456
2019-03-11T07:55:02.860Z,2080
2019-03-11T07:55:44.082Z,1696
2019-03-11T07:56:24.750Z,1456
2019-03-11T07:57:05.321Z,1576
2019-03-11T07:57:45.912Z,1680
2019-03-11T07:58:26.509Z,1676
2019-03-11T07:59:07.121Z,1784
2019-03-11T07:59:47.729Z,1716
2019-03-11T08:00:28.286Z,2104
2019-03-11T08:01:08.851Z,1736
2019-03-11T08:01:49.457Z,1592
2019-03-11T08:02:30.043Z,1620
2019-03-11T08:03:10.616Z,1588
2019-03-11T08:03:51.171Z,1560
2019-03-11T08:04:31.840Z,1536
2019-03-11T08:05:12.384Z,1436
2019-03-11T08:05:53.027Z,1428
2019-03-11T08:06:33.660Z,1356
2019-03-11T08:07:14.226Z,1280
2019-03-11T08:07:54.815Z,1268
2019-03-11T08:08:35.849Z,1476
2019-03-11T08:09:15.940Z,1784
2019-03-11T08:09:56.996Z,1764
2019-03-11T08:10:37.546Z,1512
2019-03-11T08:11:18.138Z,1364
2019-03-11T08:11:58.705Z,1484
2019-03-11T08:12:39.259Z,1632
2019-03-11T08:13:19.831Z,1824
2019-03-11T08:14:00.382Z,1632
2019-03-11T08:14:40.973Z,1620
2019-03-11T08:15:21.603Z,1848
2019-03-11T08:16:02.107Z,1504
2019-03-11T08:16:42.665Z,1696
2019-03-11T08:17:23.237Z,1688
2019-03-11T08:18:03.786Z,1600
2019-03-11T08:18:44.358Z,1544
2019-03-11T08:19:24.940Z,1560
2019-03-11T08:20:05.512Z,1496
2019-03-11T08:20:46.093Z,1520
2019-03-11T08:21:26.679Z,1420
2019-03-11T08:22:07.342Z,1376
2019-03-11T08:22:47.934Z,1404
2019-03-11T08:23:28.492Z,1576
2019-03-11T08:24:09.093Z,1504
2019-03-11T08:24:49.710Z,1456
2019-03-11T08:25:30.279Z,1520
2019-03-11T08:26:10.838Z,1652
2019-03-11T08:26:51.434Z,1508
2019-03-11T08:27:31.997Z,1464
2019-03-11T08:28:12.549Z,1388
2019-03-11T08:28:53.235Z,1480
2019-03-11T08:29:33.805Z,1412
2019-03-11T08:30:14.406Z,1432
2019-03-11T08:30:54.965Z,1388
2019-03-11T08:31:35.536Z,1376
2019-03-11T08:32:16.114Z,1244
2019-03-11T08:32:56.687Z,1280
2019-03-11T08:33:37.263Z,1376
2019-03-11T08:34:17.846Z,1468
2019-03-11T08:34:58.425Z,1456
2019-03-11T08:35:38.967Z,1372
2019-03-11T08:36:19.558Z,1324
2019-03-11T08:37:00.100Z,1472
2019-03-11T08:37:40.708Z,1808
2019-03-11T08:38:21.268Z,1872
2019-03-11T08:39:01.828Z,1440
2019-03-11T08:39:42.370Z,1224
2019-03-11T08:40:22.936Z,1316
2019-03-11T08:41:03.548Z,1104
2019-03-11T08:41:44.141Z,1276
2019-03-11T08:42:24.690Z,1308
2019-03-11T08:43:05.241Z,1304
2019-03-11T08:43:45.887Z,1240
2019-03-11T08:44:26.540Z,1296
2019-03-11T08:45:07.163Z,1296
2019-03-11T08:45:47.766Z,1340
2019-03-11T08:46:28.336Z,1260
2019-03-11T08:47:08.930Z,1044
2019-03-11T08:47:49.569Z,872
2019-03-11T08:48:30.136Z,896
2019-03-11T08:49:10.689Z,940
2019-03-11T08:49:51.257Z,1108
2019-03-11T08:50:31.799Z,1064
2019-03-11T08:51:12.371Z,1004
2019-03-11T08:51:52.931Z,1000
2019-03-11T08:52:33.483Z,1096
2019-03-11T08:53:14.042Z,1268
2019-03-11T08:53:54.667Z,1156
2019-03-11T08:54:35.186Z,1008
2019-03-11T08:55:15.749Z,888
2019-03-11T08:55:56.520Z,916
2019-03-11T08:56:37.094Z,980
2019-03-11T08:57:17.675Z,1076
2019-03-11T08:57:58.245Z,1300
2019-03-11T08:58:38.811Z,1208
2019-03-11T08:59:19.378Z,1164
2019-03-11T08:59:59.946Z,1044
2019-03-11T09:00:40.486Z,1128
2019-03-11T09:01:21.070Z,1088
2019-03-11T09:02:01.683Z,1096
2019-03-11T09:02:42.266Z,1044
2019-03-11T09:03:22.892Z,1004
2019-03-11T09:04:03.458Z,912
2019-03-11T09:04:44.026Z,812
2019-03-11T09:05:24.615Z,752
2019-03-11T09:06:05.171Z,708
2019-03-11T09:06:45.837Z,644
2019-03-11T09:07:26.519Z,632
2019-03-11T09:08:07.362Z,660
2019-03-11T09:08:47.977Z,708
2019-03-11T09:09:31.551Z,696
2019-03-11T09:10:09.562Z,696
2019-03-11T09:10:50.127Z,672
2019-03-11T09:11:30.752Z,736
2019-03-11T09:12:11.291Z,852
2019-03-11T09:12:51.867Z,876
2019-03-11T09:13:32.439Z,1032
2019-03-11T09:14:12.991Z,1136
2019-03-11T09:14:53.610Z,944
2019-03-11T09:15:34.216Z,832
2019-03-11T09:16:14.797Z,944
2019-03-11T09:16:55.360Z,1016
2019-03-11T09:17:35.930Z,872
2019-03-11T09:18:16.633Z,760
2019-03-11T09:18:57.201Z,788
2019-03-11T09:19:37.750Z,884
2019-03-11T09:20:18.342Z,996
2019-03-11T09:20:58.913Z,988
2019-03-11T09:21:39.529Z,1044
2019-03-11T09:22:20.053Z,1172
2019-03-11T09:23:00.623Z,1152
2019-03-11T09:23:41.203Z,1176
2019-03-11T09:24:21.798Z,1224
2019-03-11T09:25:02.371Z,1268
2019-03-11T09:25:42.917Z,1304
2019-03-11T09:26:23.572Z,1424
2019-03-11T09:27:04.161Z,1336
2019-03-11T09:27:44.761Z,1356
2019-03-11T09:28:25.454Z,1384
2019-03-11T09:29:06.149Z,1488
2019-03-11T09:29:46.870Z,1716
2019-03-11T09:30:27.613Z,1976
2019-03-11T09:31:08.151Z,2040
2019-03-11T09:31:48.941Z,2036
2019-03-11T09:32:29.386Z,1908
2019-03-11T09:33:10.039Z,2032
2019-03-11T09:33:50.615Z,2312
2019-03-11T09:34:31.175Z,2152
2019-03-11T09:35:11.724Z,2360
2019-03-11T09:35:52.309Z,2612
2019-03-11T09:36:32.908Z,2532